sensor_id;sensor_type;location;lat;lon;timestamp;P1;durP1;ratioP1;P2;durP2;ratioP2
48100;SDS011;33878;47.442;18.916;2022-08-21T00:01:24;7.45;;;4.25;;
48100;SDS011;33878;47.442;18.916;2022-08-21T00:04:12;6.80;;;3.95;;
48100;SDS011;33878;47.442;18.916;2022-08-21T00:07:06;6.80;;;4.55;;
48100;SDS011;33878;47.442;18.916;2022-08-21T00:09:53;5.32;;;3.55;;
48100;SDS011;33878;47.442;18.916;2022-08-21T00:12:39;5.82;;;4.20;;
48100;SDS011;33878;47.442;18.916;2022-08-21T00:15:27;7.68;;;4.50;;
48100;SDS011;33878;47.442;18.916;2022-08-21T00:18:15;4.82;;;3.92;;
48100;SDS011;33878;47.442;18.916;2022-08-21T00:21:02;5.25;;;3.83;;
48100;SDS011;33878;47.442;18.916;2022-08-21T00:23:48;5.53;;;4.12;;
48100;SDS011;33878;47.442;18.916;2022-08-21T00:26:35;6.10;;;3.95;;
48100;SDS011;33878;47.442;18.916;2022-08-21T00:29:21;5.25;;;3.87;;
48100;SDS011;33878;47.442;18.916;2022-08-21T00:32:08;6.25;;;4.22;;
48100;SDS011;33878;47.442;18.916;2022-08-21T00:34:54;6.65;;;4.47;;
48100;SDS011;33878;47.442;18.916;2022-08-21T00:37:41;8.90;;;5.57;;
48100;SDS011;33878;47.442;18.916;2022-08-21T00:40:33;6.37;;;4.22;;
48100;SDS011;33878;47.442;18.916;2022-08-21T00:43:24;7.12;;;4.93;;
48100;SDS011;33878;47.442;18.916;2022-08-21T00:46:15;6.82;;;5.03;;
48100;SDS011;33878;47.442;18.916;2022-08-21T00:49:02;9.65;;;4.87;;
48100;SDS011;33878;47.442;18.916;2022-08-21T00:51:51;7.03;;;4.75;;
48100;SDS011;33878;47.442;18.916;2022-08-21T00:54:39;8.15;;;4.78;;
48100;SDS011;33878;47.442;18.916;2022-08-21T01:00:21;8.18;;;5.15;;
48100;SDS011;33878;47.442;18.916;2022-08-21T01:03:11;10.07;;;5.78;;
48100;SDS011;33878;47.442;18.916;2022-08-21T01:06:02;8.80;;;5.43;;
48100;SDS011;33878;47.442;18.916;2022-08-21T01:08:49;7.47;;;4.72;;
48100;SDS011;33878;47.442;18.916;2022-08-21T01:11:36;7.72;;;4.68;;
48100;SDS011;33878;47.442;18.916;2022-08-21T01:14:23;7.95;;;5.03;;
48100;SDS011;33878;47.442;18.916;2022-08-21T01:17:10;9.93;;;5.53;;
48100;SDS011;33878;47.442;18.916;2022-08-21T01:19:58;9.20;;;5.82;;
48100;SDS011;33878;47.442;18.916;2022-08-21T01:22:45;13.80;;;7.53;;
48100;SDS011;33878;47.442;18.916;2022-08-21T01:25:31;11.20;;;6.87;;
48100;SDS011;33878;47.442;18.916;2022-08-21T01:28:19;10.18;;;6.15;;
48100;SDS011;33878;47.442;18.916;2022-08-21T01:31:06;9.27;;;6.12;;
48100;SDS011;33878;47.442;18.916;2022-08-21T01:33:54;7.97;;;5.72;;
48100;SDS011;33878;47.442;18.916;2022-08-21T01:36:41;12.95;;;6.55;;
48100;SDS011;33878;47.442;18.916;2022-08-21T01:39:29;10.45;;;6.50;;
48100;SDS011;33878;47.442;18.916;2022-08-21T01:42:15;11.27;;;7.03;;
48100;SDS011;33878;47.442;18.916;2022-08-21T01:45:01;11.50;;;6.32;;
48100;SDS011;33878;47.442;18.916;2022-08-21T01:47:47;11.43;;;6.37;;
48100;SDS011;33878;47.442;18.916;2022-08-21T01:50:34;10.55;;;6.57;;
48100;SDS011;33878;47.442;18.916;2022-08-21T01:53:20;10.93;;;6.55;;
48100;SDS011;33878;47.442;18.916;2022-08-21T01:56:18;13.68;;;7.60;;
48100;SDS011;33878;47.442;18.916;2022-08-21T01:59:04;12.70;;;8.23;;
48100;SDS011;33878;47.442;18.916;2022-08-21T02:01:51;11.75;;;6.53;;
48100;SDS011;33878;47.442;18.916;2022-08-21T02:04:40;11.73;;;7.22;;
48100;SDS011;33878;47.442;18.916;2022-08-21T02:07:35;13.45;;;7.28;;
48100;SDS011;33878;47.442;18.916;2022-08-21T02:10:27;10.40;;;6.78;;
48100;SDS011;33878;47.442;18.916;2022-08-21T02:13:16;12.07;;;7.03;;
48100;SDS011;33878;47.442;18.916;2022-08-21T02:16:03;10.63;;;6.45;;
48100;SDS011;33878;47.442;18.916;2022-08-21T02:18:49;11.98;;;7.15;;
48100;SDS011;33878;47.442;18.916;2022-08-21T02:21:36;11.40;;;6.60;;
48100;SDS011;33878;47.442;18.916;2022-08-21T02:24:22;13.20;;;7.57;;
48100;SDS011;33878;47.442;18.916;2022-08-21T02:27:09;13.75;;;6.82;;
48100;SDS011;33878;47.442;18.916;2022-08-21T02:29:57;11.88;;;7.10;;
48100;SDS011;33878;47.442;18.916;2022-08-21T02:32:43;13.48;;;8.60;;
48100;SDS011;33878;47.442;18.916;2022-08-21T02:35:30;11.85;;;7.05;;
48100;SDS011;33878;47.442;18.916;2022-08-21T02:38:18;11.18;;;7.12;;
48100;SDS011;33878;47.442;18.916;2022-08-21T02:41:07;11.12;;;7.62;;
48100;SDS011;33878;47.442;18.916;2022-08-21T02:43:55;13.77;;;8.00;;
48100;SDS011;33878;47.442;18.916;2022-08-21T02:46:41;12.23;;;7.43;;
48100;SDS011;33878;47.442;18.916;2022-08-21T02:49:27;12.88;;;7.93;;
48100;SDS011;33878;47.442;18.916;2022-08-21T02:52:14;13.95;;;7.03;;
48100;SDS011;33878;47.442;18.916;2022-08-21T02:55:00;12.50;;;7.93;;
48100;SDS011;33878;47.442;18.916;2022-08-21T02:57:47;16.05;;;8.63;;
48100;SDS011;33878;47.442;18.916;2022-08-21T03:00:35;13.68;;;7.72;;
48100;SDS011;33878;47.442;18.916;2022-08-21T03:03:22;13.02;;;7.68;;
48100;SDS011;33878;47.442;18.916;2022-08-21T03:06:09;14.50;;;7.97;;
48100;SDS011;33878;47.442;18.916;2022-08-21T03:08:57;11.73;;;7.60;;
48100;SDS011;33878;47.442;18.916;2022-08-21T03:11:43;11.93;;;7.07;;
48100;SDS011;33878;47.442;18.916;2022-08-21T03:14:29;10.73;;;6.90;;
48100;SDS011;33878;47.442;18.916;2022-08-21T03:17:16;14.07;;;7.78;;
48100;SDS011;33878;47.442;18.916;2022-08-21T03:20:03;14.18;;;8.30;;
48100;SDS011;33878;47.442;18.916;2022-08-21T03:22:51;12.43;;;8.70;;
48100;SDS011;33878;47.442;18.916;2022-08-21T03:25:38;15.18;;;8.73;;
48100;SDS011;33878;47.442;18.916;2022-08-21T03:28:27;12.57;;;8.25;;
48100;SDS011;33878;47.442;18.916;2022-08-21T03:31:13;14.55;;;9.00;;
48100;SDS011;33878;47.442;18.916;2022-08-21T03:34:00;15.43;;;9.38;;
48100;SDS011;33878;47.442;18.916;2022-08-21T03:36:47;16.50;;;9.73;;
48100;SDS011;33878;47.442;18.916;2022-08-21T03:39:35;15.50;;;9.80;;
48100;SDS011;33878;47.442;18.916;2022-08-21T03:42:21;16.23;;;9.60;;
48100;SDS011;33878;47.442;18.916;2022-08-21T03:45:08;14.15;;;8.98;;
48100;SDS011;33878;47.442;18.916;2022-08-21T03:47:57;17.98;;;9.63;;
48100;SDS011;33878;47.442;18.916;2022-08-21T03:50:44;16.65;;;9.18;;
48100;SDS011;33878;47.442;18.916;2022-08-21T03:53:32;16.15;;;10.10;;
48100;SDS011;33878;47.442;18.916;2022-08-21T03:56:19;18.00;;;9.95;;
48100;SDS011;33878;47.442;18.916;2022-08-21T03:59:06;15.77;;;9.57;;
48100;SDS011;33878;47.442;18.916;2022-08-21T04:01:57;18.75;;;10.25;;
48100;SDS011;33878;47.442;18.916;2022-08-21T04:04:45;17.15;;;11.18;;
48100;SDS011;33878;47.442;18.916;2022-08-21T04:07:31;15.27;;;9.90;;
48100;SDS011;33878;47.442;18.916;2022-08-21T04:10:17;17.50;;;10.48;;
48100;SDS011;33878;47.442;18.916;2022-08-21T04:13:04;16.15;;;10.02;;
48100;SDS011;33878;47.442;18.916;2022-08-21T04:15:51;18.17;;;10.65;;
48100;SDS011;33878;47.442;18.916;2022-08-21T04:18:37;16.73;;;10.43;;
48100;SDS011;33878;47.442;18.916;2022-08-21T04:21:24;19.48;;;10.13;;
48100;SDS011;33878;47.442;18.916;2022-08-21T04:24:10;15.25;;;10.57;;
48100;SDS011;33878;47.442;18.916;2022-08-21T04:26:57;16.23;;;9.80;;
48100;SDS011;33878;47.442;18.916;2022-08-21T04:29:43;14.63;;;9.00;;
48100;SDS011;33878;47.442;18.916;2022-08-21T04:32:30;13.82;;;9.40;;
48100;SDS011;33878;47.442;18.916;2022-08-21T04:35:17;16.48;;;9.52;;
48100;SDS011;33878;47.442;18.916;2022-08-21T04:38:05;13.82;;;8.73;;
48100;SDS011;33878;47.442;18.916;2022-08-21T04:40:51;13.82;;;8.85;;
48100;SDS011;33878;47.442;18.916;2022-08-21T04:43:38;12.82;;;8.35;;
48100;SDS011;33878;47.442;18.916;2022-08-21T04:46:25;11.70;;;8.02;;
48100;SDS011;33878;47.442;18.916;2022-08-21T04:49:11;14.65;;;8.18;;
48100;SDS011;33878;47.442;18.916;2022-08-21T04:51:58;14.30;;;8.40;;
48100;SDS011;33878;47.442;18.916;2022-08-21T04:54:44;12.10;;;7.65;;
48100;SDS011;33878;47.442;18.916;2022-08-21T04:57:31;14.20;;;6.87;;
48100;SDS011;33878;47.442;18.916;2022-08-21T05:00:33;11.90;;;6.97;;
48100;SDS011;33878;47.442;18.916;2022-08-21T05:03:19;10.02;;;6.50;;
48100;SDS011;33878;47.442;18.916;2022-08-21T05:06:08;10.15;;;6.40;;
48100;SDS011;33878;47.442;18.916;2022-08-21T05:08:56;10.43;;;6.53;;
48100;SDS011;33878;47.442;18.916;2022-08-21T05:11:47;9.10;;;6.00;;
48100;SDS011;33878;47.442;18.916;2022-08-21T05:14:34;9.57;;;5.57;;
48100;SDS011;33878;47.442;18.916;2022-08-21T05:17:21;10.15;;;5.62;;
48100;SDS011;33878;47.442;18.916;2022-08-21T05:20:08;8.18;;;5.28;;
48100;SDS011;33878;47.442;18.916;2022-08-21T05:22:56;11.02;;;5.80;;
48100;SDS011;33878;47.442;18.916;2022-08-21T05:25:42;8.63;;;4.97;;
48100;SDS011;33878;47.442;18.916;2022-08-21T05:28:31;10.10;;;5.45;;
48100;SDS011;33878;47.442;18.916;2022-08-21T05:31:17;8.15;;;5.12;;
48100;SDS011;33878;47.442;18.916;2022-08-21T05:34:05;8.68;;;5.28;;
48100;SDS011;33878;47.442;18.916;2022-08-21T05:36:52;9.65;;;5.22;;
48100;SDS011;33878;47.442;18.916;2022-08-21T05:39:38;8.23;;;5.50;;
48100;SDS011;33878;47.442;18.916;2022-08-21T05:42:44;8.57;;;5.37;;
48100;SDS011;33878;47.442;18.916;2022-08-21T05:45:40;8.00;;;5.07;;
48100;SDS011;33878;47.442;18.916;2022-08-21T05:48:29;6.85;;;4.28;;
48100;SDS011;33878;47.442;18.916;2022-08-21T05:51:16;10.48;;;5.07;;
48100;SDS011;33878;47.442;18.916;2022-08-21T05:54:03;8.05;;;5.22;;
48100;SDS011;33878;47.442;18.916;2022-08-21T05:56:49;7.05;;;4.70;;
48100;SDS011;33878;47.442;18.916;2022-08-21T05:59:35;8.82;;;4.90;;
48100;SDS011;33878;47.442;18.916;2022-08-21T06:02:21;9.55;;;4.72;;
48100;SDS011;33878;47.442;18.916;2022-08-21T06:05:08;9.65;;;4.45;;
48100;SDS011;33878;47.442;18.916;2022-08-21T06:07:54;6.87;;;4.55;;
48100;SDS011;33878;47.442;18.916;2022-08-21T06:10:41;8.25;;;4.85;;
48100;SDS011;33878;47.442;18.916;2022-08-21T06:13:28;8.35;;;5.40;;
48100;SDS011;33878;47.442;18.916;2022-08-21T06:16:15;7.25;;;4.57;;
48100;SDS011;33878;47.442;18.916;2022-08-21T06:19:02;6.85;;;4.75;;
48100;SDS011;33878;47.442;18.916;2022-08-21T06:21:48;7.57;;;4.60;;
48100;SDS011;33878;47.442;18.916;2022-08-21T06:24:34;9.55;;;4.72;;
48100;SDS011;33878;47.442;18.916;2022-08-21T06:27:21;9.82;;;5.43;;
48100;SDS011;33878;47.442;18.916;2022-08-21T06:30:11;7.40;;;4.40;;
48100;SDS011;33878;47.442;18.916;2022-08-21T06:32:58;7.35;;;4.97;;
48100;SDS011;33878;47.442;18.916;2022-08-21T06:35:45;7.25;;;4.62;;
48100;SDS011;33878;47.442;18.916;2022-08-21T06:38:31;5.93;;;4.30;;
48100;SDS011;33878;47.442;18.916;2022-08-21T06:41:18;7.80;;;5.30;;
48100;SDS011;33878;47.442;18.916;2022-08-21T06:44:11;7.55;;;4.65;;
48100;SDS011;33878;47.442;18.916;2022-08-21T06:46:58;6.60;;;4.62;;
48100;SDS011;33878;47.442;18.916;2022-08-21T06:49:44;8.57;;;5.22;;
48100;SDS011;33878;47.442;18.916;2022-08-21T06:52:30;6.80;;;4.82;;
48100;SDS011;33878;47.442;18.916;2022-08-21T06:55:17;7.87;;;5.03;;
48100;SDS011;33878;47.442;18.916;2022-08-21T06:58:09;6.15;;;4.00;;
48100;SDS011;33878;47.442;18.916;2022-08-21T07:00:55;9.82;;;5.28;;
48100;SDS011;33878;47.442;18.916;2022-08-21T07:03:45;9.35;;;5.07;;
48100;SDS011;33878;47.442;18.916;2022-08-21T07:06:32;9.65;;;5.10;;
48100;SDS011;33878;47.442;18.916;2022-08-21T07:09:18;8.35;;;4.97;;
48100;SDS011;33878;47.442;18.916;2022-08-21T07:14:55;9.55;;;4.62;;
48100;SDS011;33878;47.442;18.916;2022-08-21T07:17:42;8.75;;;4.87;;
48100;SDS011;33878;47.442;18.916;2022-08-21T07:20:29;8.13;;;4.70;;
48100;SDS011;33878;47.442;18.916;2022-08-21T07:23:38;7.85;;;4.85;;
48100;SDS011;33878;47.442;18.916;2022-08-21T07:26:24;7.18;;;4.87;;
48100;SDS011;33878;47.442;18.916;2022-08-21T07:29:11;7.72;;;5.15;;
48100;SDS011;33878;47.442;18.916;2022-08-21T07:31:59;8.63;;;5.00;;
48100;SDS011;33878;47.442;18.916;2022-08-21T07:34:45;10.70;;;5.43;;
48100;SDS011;33878;47.442;18.916;2022-08-21T07:37:31;8.50;;;5.40;;
48100;SDS011;33878;47.442;18.916;2022-08-21T07:40:18;7.82;;;5.28;;
48100;SDS011;33878;47.442;18.916;2022-08-21T07:43:04;9.35;;;5.53;;
48100;SDS011;33878;47.442;18.916;2022-08-21T07:45:50;7.60;;;5.20;;
48100;SDS011;33878;47.442;18.916;2022-08-21T07:48:36;9.23;;;5.70;;
48100;SDS011;33878;47.442;18.916;2022-08-21T07:51:25;8.13;;;4.85;;
48100;SDS011;33878;47.442;18.916;2022-08-21T07:54:12;8.60;;;5.18;;
48100;SDS011;33878;47.442;18.916;2022-08-21T07:57:02;7.30;;;4.97;;
48100;SDS011;33878;47.442;18.916;2022-08-21T07:59:49;8.38;;;5.00;;
48100;SDS011;33878;47.442;18.916;2022-08-21T08:02:35;10.90;;;5.47;;
48100;SDS011;33878;47.442;18.916;2022-08-21T08:05:23;12.15;;;6.25;;
48100;SDS011;33878;47.442;18.916;2022-08-21T08:08:11;8.13;;;5.18;;
48100;SDS011;33878;47.442;18.916;2022-08-21T08:10:58;8.10;;;5.60;;
48100;SDS011;33878;47.442;18.916;2022-08-21T08:13:49;8.27;;;5.85;;
48100;SDS011;33878;47.442;18.916;2022-08-21T08:16:36;7.97;;;5.50;;
48100;SDS011;33878;47.442;18.916;2022-08-21T08:19:24;8.40;;;5.47;;
48100;SDS011;33878;47.442;18.916;2022-08-21T08:22:14;8.85;;;5.50;;
48100;SDS011;33878;47.442;18.916;2022-08-21T08:25:01;8.65;;;5.90;;
48100;SDS011;33878;47.442;18.916;2022-08-21T08:27:54;11.63;;;5.43;;
48100;SDS011;33878;47.442;18.916;2022-08-21T08:30:40;8.27;;;5.22;;
48100;SDS011;33878;47.442;18.916;2022-08-21T08:33:26;6.90;;;5.07;;
48100;SDS011;33878;47.442;18.916;2022-08-21T08:36:16;9.55;;;6.18;;
48100;SDS011;33878;47.442;18.916;2022-08-21T08:39:05;7.50;;;4.95;;
48100;SDS011;33878;47.442;18.916;2022-08-21T08:42:04;8.30;;;5.37;;
48100;SDS011;33878;47.442;18.916;2022-08-21T08:45:13;7.07;;;4.97;;
48100;SDS011;33878;47.442;18.916;2022-08-21T08:48:04;8.70;;;5.78;;
48100;SDS011;33878;47.442;18.916;2022-08-21T08:50:59;9.93;;;5.10;;
48100;SDS011;33878;47.442;18.916;2022-08-21T08:53:49;6.97;;;5.35;;
48100;SDS011;33878;47.442;18.916;2022-08-21T08:56:38;8.18;;;5.55;;
48100;SDS011;33878;47.442;18.916;2022-08-21T08:59:31;8.38;;;4.90;;
48100;SDS011;33878;47.442;18.916;2022-08-21T09:02:22;9.57;;;5.22;;
48100;SDS011;33878;47.442;18.916;2022-08-21T09:11:27;8.75;;;5.95;;
48100;SDS011;33878;47.442;18.916;2022-08-21T09:24:06;8.98;;;6.00;;
48100;SDS011;33878;47.442;18.916;2022-08-21T09:29:54;9.90;;;7.00;;
48100;SDS011;33878;47.442;18.916;2022-08-21T09:32:40;9.70;;;6.32;;
48100;SDS011;33878;47.442;18.916;2022-08-21T09:35:27;9.50;;;6.40;;
48100;SDS011;33878;47.442;18.916;2022-08-21T09:38:21;9.57;;;6.03;;
48100;SDS011;33878;47.442;18.916;2022-08-21T09:41:10;8.05;;;6.35;;
48100;SDS011;33878;47.442;18.916;2022-08-21T09:43:59;10.10;;;5.70;;
48100;SDS011;33878;47.442;18.916;2022-08-21T09:46:51;9.90;;;5.95;;
48100;SDS011;33878;47.442;18.916;2022-08-21T09:49:41;10.65;;;7.20;;
48100;SDS011;33878;47.442;18.916;2022-08-21T09:52:28;9.95;;;6.12;;
48100;SDS011;33878;47.442;18.916;2022-08-21T09:55:16;7.85;;;5.20;;
48100;SDS011;33878;47.442;18.916;2022-08-21T09:58:30;8.40;;;5.60;;
48100;SDS011;33878;47.442;18.916;2022-08-21T10:01:20;7.60;;;5.43;;
48100;SDS011;33878;47.442;18.916;2022-08-21T10:04:08;7.30;;;5.47;;
48100;SDS011;33878;47.442;18.916;2022-08-21T10:07:04;7.80;;;5.20;;
48100;SDS011;33878;47.442;18.916;2022-08-21T10:10:05;9.73;;;5.80;;
48100;SDS011;33878;47.442;18.916;2022-08-21T10:13:14;8.85;;;5.65;;
48100;SDS011;33878;47.442;18.916;2022-08-21T10:25:18;9.00;;;5.78;;
48100;SDS011;33878;47.442;18.916;2022-08-21T10:29:02;8.95;;;5.60;;
48100;SDS011;33878;47.442;18.916;2022-08-21T10:38:59;9.32;;;6.70;;
48100;SDS011;33878;47.442;18.916;2022-08-21T10:45:20;8.15;;;4.87;;
48100;SDS011;33878;47.442;18.916;2022-08-21T10:48:24;8.63;;;6.10;;
48100;SDS011;33878;47.442;18.916;2022-08-21T10:57:36;9.85;;;5.93;;
48100;SDS011;33878;47.442;18.916;2022-08-21T11:00:31;9.55;;;5.53;;
48100;SDS011;33878;47.442;18.916;2022-08-21T11:03:37;9.45;;;5.85;;
48100;SDS011;33878;47.442;18.916;2022-08-21T11:06:30;9.95;;;6.10;;
48100;SDS011;33878;47.442;18.916;2022-08-21T11:09:29;8.80;;;5.40;;
48100;SDS011;33878;47.442;18.916;2022-08-21T11:12:26;9.05;;;6.53;;
48100;SDS011;33878;47.442;18.916;2022-08-21T11:18:50;8.98;;;6.05;;
48100;SDS011;33878;47.442;18.916;2022-08-21T11:22:21;8.68;;;5.95;;
48100;SDS011;33878;47.442;18.916;2022-08-21T11:25:35;9.57;;;5.80;;
48100;SDS011;33878;47.442;18.916;2022-08-21T11:28:35;8.55;;;5.55;;
48100;SDS011;33878;47.442;18.916;2022-08-21T11:34:32;7.50;;;4.97;;
48100;SDS011;33878;47.442;18.916;2022-08-21T11:43:39;10.50;;;6.12;;
48100;SDS011;33878;47.442;18.916;2022-08-21T11:50:17;9.75;;;6.07;;
48100;SDS011;33878;47.442;18.916;2022-08-21T11:56:40;8.77;;;6.15;;
48100;SDS011;33878;47.442;18.916;2022-08-21T12:02:34;7.90;;;6.12;;
48100;SDS011;33878;47.442;18.916;2022-08-21T12:05:33;10.63;;;6.43;;
48100;SDS011;33878;47.442;18.916;2022-08-21T12:08:39;20.67;;;7.75;;
48100;SDS011;33878;47.442;18.916;2022-08-21T12:11:47;10.25;;;5.72;;
48100;SDS011;33878;47.442;18.916;2022-08-21T12:18:20;10.10;;;6.32;;
48100;SDS011;33878;47.442;18.916;2022-08-21T12:21:26;7.10;;;5.35;;
48100;SDS011;33878;47.442;18.916;2022-08-21T12:27:29;10.18;;;5.45;;
48100;SDS011;33878;47.442;18.916;2022-08-21T12:39:33;9.93;;;5.65;;
48100;SDS011;33878;47.442;18.916;2022-08-21T12:42:37;11.02;;;5.80;;
48100;SDS011;33878;47.442;18.916;2022-08-21T12:45:40;9.27;;;5.97;;
48100;SDS011;33878;47.442;18.916;2022-08-21T12:51:50;8.30;;;5.28;;
48100;SDS011;33878;47.442;18.916;2022-08-21T12:54:47;10.35;;;5.03;;
48100;SDS011;33878;47.442;18.916;2022-08-21T12:57:40;9.00;;;5.43;;
48100;SDS011;33878;47.442;18.916;2022-08-21T13:00:50;8.05;;;4.85;;
48100;SDS011;33878;47.442;18.916;2022-08-21T13:03:41;12.45;;;7.55;;
48100;SDS011;33878;47.442;18.916;2022-08-21T13:06:31;9.80;;;5.70;;
48100;SDS011;33878;47.442;18.916;2022-08-21T13:09:33;6.68;;;4.10;;
48100;SDS011;33878;47.442;18.916;2022-08-21T13:15:44;3.58;;;2.70;;
48100;SDS011;33878;47.442;18.916;2022-08-21T13:18:40;5.03;;;2.80;;
48100;SDS011;33878;47.442;18.916;2022-08-21T13:21:48;4.87;;;2.47;;
48100;SDS011;33878;47.442;18.916;2022-08-21T13:24:41;4.18;;;2.80;;
48100;SDS011;33878;47.442;18.916;2022-08-21T13:27:56;4.68;;;2.60;;
48100;SDS011;33878;47.442;18.916;2022-08-21T13:30:55;3.87;;;2.33;;
48100;SDS011;33878;47.442;18.916;2022-08-21T13:33:53;4.62;;;2.60;;
48100;SDS011;33878;47.442;18.916;2022-08-21T13:36:46;5.68;;;2.75;;
48100;SDS011;33878;47.442;18.916;2022-08-21T13:39:36;4.30;;;2.72;;
48100;SDS011;33878;47.442;18.916;2022-08-21T13:42:26;4.75;;;2.62;;
48100;SDS011;33878;47.442;18.916;2022-08-21T13:45:32;3.62;;;2.60;;
48100;SDS011;33878;47.442;18.916;2022-08-21T13:48:26;6.28;;;2.42;;
48100;SDS011;33878;47.442;18.916;2022-08-21T13:51:24;2.95;;;2.30;;
48100;SDS011;33878;47.442;18.916;2022-08-21T13:54:39;6.07;;;2.90;;
48100;SDS011;33878;47.442;18.916;2022-08-21T13:57:39;3.17;;;2.35;;
48100;SDS011;33878;47.442;18.916;2022-08-21T14:00:47;4.12;;;2.30;;
48100;SDS011;33878;47.442;18.916;2022-08-21T14:04:03;3.87;;;2.28;;
48100;SDS011;33878;47.442;18.916;2022-08-21T14:06:59;4.87;;;2.20;;
48100;SDS011;33878;47.442;18.916;2022-08-21T14:09:54;5.40;;;2.53;;
48100;SDS011;33878;47.442;18.916;2022-08-21T14:12:43;3.40;;;2.22;;
48100;SDS011;33878;47.442;18.916;2022-08-21T14:19:09;4.07;;;2.67;;
48100;SDS011;33878;47.442;18.916;2022-08-21T14:22:21;4.10;;;2.70;;
48100;SDS011;33878;47.442;18.916;2022-08-21T14:25:11;4.10;;;2.47;;
48100;SDS011;33878;47.442;18.916;2022-08-21T14:28:30;4.50;;;2.42;;
48100;SDS011;33878;47.442;18.916;2022-08-21T14:31:29;3.83;;;2.40;;
48100;SDS011;33878;47.442;18.916;2022-08-21T14:34:32;2.80;;;2.30;;
48100;SDS011;33878;47.442;18.916;2022-08-21T14:37:31;4.68;;;2.42;;
48100;SDS011;33878;47.442;18.916;2022-08-21T14:40:30;3.42;;;2.40;;
48100;SDS011;33878;47.442;18.916;2022-08-21T14:43:28;4.78;;;2.70;;
48100;SDS011;33878;47.442;18.916;2022-08-21T14:49:36;4.30;;;2.28;;
48100;SDS011;33878;47.442;18.916;2022-08-21T14:52:25;4.57;;;2.83;;
48100;SDS011;33878;47.442;18.916;2022-08-21T14:55:28;4.05;;;2.22;;
48100;SDS011;33878;47.442;18.916;2022-08-21T14:58:32;3.67;;;2.47;;
48100;SDS011;33878;47.442;18.916;2022-08-21T15:01:37;4.68;;;2.22;;
48100;SDS011;33878;47.442;18.916;2022-08-21T15:04:32;6.87;;;2.37;;
48100;SDS011;33878;47.442;18.916;2022-08-21T15:07:20;3.42;;;2.37;;
48100;SDS011;33878;47.442;18.916;2022-08-21T15:10:27;4.00;;;2.62;;
48100;SDS011;33878;47.442;18.916;2022-08-21T15:16:15;3.58;;;2.30;;
48100;SDS011;33878;47.442;18.916;2022-08-21T15:19:06;5.75;;;3.08;;
48100;SDS011;33878;47.442;18.916;2022-08-21T15:21:55;5.35;;;2.70;;
48100;SDS011;33878;47.442;18.916;2022-08-21T15:24:52;3.28;;;2.60;;
48100;SDS011;33878;47.442;18.916;2022-08-21T15:27:51;6.35;;;2.70;;
48100;SDS011;33878;47.442;18.916;2022-08-21T15:36:57;3.47;;;2.30;;
48100;SDS011;33878;47.442;18.916;2022-08-21T15:40:03;4.55;;;2.60;;
48100;SDS011;33878;47.442;18.916;2022-08-21T15:45:52;4.57;;;2.50;;
48100;SDS011;33878;47.442;18.916;2022-08-21T15:48:43;5.37;;;2.55;;
48100;SDS011;33878;47.442;18.916;2022-08-21T15:51:34;6.18;;;2.80;;
48100;SDS011;33878;47.442;18.916;2022-08-21T15:57:27;3.97;;;2.97;;
48100;SDS011;33878;47.442;18.916;2022-08-21T16:00:19;3.85;;;2.97;;
48100;SDS011;33878;47.442;18.916;2022-08-21T16:03:20;4.15;;;3.00;;
48100;SDS011;33878;47.442;18.916;2022-08-21T16:06:22;4.35;;;3.12;;
48100;SDS011;33878;47.442;18.916;2022-08-21T16:09:36;6.32;;;3.72;;
48100;SDS011;33878;47.442;18.916;2022-08-21T16:12:30;5.25;;;3.55;;
48100;SDS011;33878;47.442;18.916;2022-08-21T16:15:30;7.53;;;3.70;;
48100;SDS011;33878;47.442;18.916;2022-08-21T16:18:35;7.93;;;4.12;;
48100;SDS011;33878;47.442;18.916;2022-08-21T16:21:29;5.78;;;4.32;;
48100;SDS011;33878;47.442;18.916;2022-08-21T16:27:24;5.25;;;3.53;;
48100;SDS011;33878;47.442;18.916;2022-08-21T16:30:19;6.25;;;4.25;;
48100;SDS011;33878;47.442;18.916;2022-08-21T16:36:40;6.03;;;3.85;;
48100;SDS011;33878;47.442;18.916;2022-08-21T16:39:31;6.28;;;4.18;;
48100;SDS011;33878;47.442;18.916;2022-08-21T16:42:30;8.00;;;5.32;;
48100;SDS011;33878;47.442;18.916;2022-08-21T16:48:37;7.72;;;4.78;;
48100;SDS011;33878;47.442;18.916;2022-08-21T16:54:27;10.18;;;5.22;;
48100;SDS011;33878;47.442;18.916;2022-08-21T16:57:25;9.68;;;6.25;;
48100;SDS011;33878;47.442;18.916;2022-08-21T17:00:18;8.75;;;5.30;;
48100;SDS011;33878;47.442;18.916;2022-08-21T17:03:12;9.63;;;5.70;;
48100;SDS011;33878;47.442;18.916;2022-08-21T17:06:13;8.07;;;5.15;;
48100;SDS011;33878;47.442;18.916;2022-08-21T17:09:06;10.00;;;6.10;;
48100;SDS011;33878;47.442;18.916;2022-08-21T17:11:56;11.65;;;4.45;;
48100;SDS011;33878;47.442;18.916;2022-08-21T17:15:00;7.00;;;4.55;;
48100;SDS011;33878;47.442;18.916;2022-08-21T17:20:52;7.50;;;4.57;;
48100;SDS011;33878;47.442;18.916;2022-08-21T17:23:46;7.85;;;5.00;;
48100;SDS011;33878;47.442;18.916;2022-08-21T17:26:41;7.50;;;4.68;;
48100;SDS011;33878;47.442;18.916;2022-08-21T17:29:38;7.85;;;4.25;;
48100;SDS011;33878;47.442;18.916;2022-08-21T17:32:45;7.87;;;4.05;;
48100;SDS011;33878;47.442;18.916;2022-08-21T17:35:49;7.82;;;3.95;;
48100;SDS011;33878;47.442;18.916;2022-08-21T17:38:52;6.95;;;4.43;;
48100;SDS011;33878;47.442;18.916;2022-08-21T17:44:47;9.70;;;4.85;;
48100;SDS011;33878;47.442;18.916;2022-08-21T17:53:46;7.03;;;4.18;;
48100;SDS011;33878;47.442;18.916;2022-08-21T17:56:48;7.10;;;4.07;;
48100;SDS011;33878;47.442;18.916;2022-08-21T17:59:54;7.28;;;4.72;;
48100;SDS011;33878;47.442;18.916;2022-08-21T18:03:08;8.90;;;5.20;;
48100;SDS011;33878;47.442;18.916;2022-08-21T18:09:16;9.88;;;5.00;;
48100;SDS011;33878;47.442;18.916;2022-08-21T18:15:13;8.98;;;5.37;;
48100;SDS011;33878;47.442;18.916;2022-08-21T18:27:28;10.35;;;6.07;;
48100;SDS011;33878;47.442;18.916;2022-08-21T18:33:39;6.93;;;5.32;;
48100;SDS011;33878;47.442;18.916;2022-08-21T18:36:49;6.72;;;4.37;;
48100;SDS011;33878;47.442;18.916;2022-08-21T18:39:47;6.25;;;3.80;;
48100;SDS011;33878;47.442;18.916;2022-08-21T18:42:42;8.18;;;4.07;;
48100;SDS011;33878;47.442;18.916;2022-08-21T18:45:47;4.95;;;3.58;;
48100;SDS011;33878;47.442;18.916;2022-08-21T18:48:47;5.90;;;3.58;;
48100;SDS011;33878;47.442;18.916;2022-08-21T18:51:40;7.28;;;4.15;;
48100;SDS011;33878;47.442;18.916;2022-08-21T18:57:53;6.68;;;4.60;;
48100;SDS011;33878;47.442;18.916;2022-08-21T19:07:38;6.85;;;5.00;;
48100;SDS011;33878;47.442;18.916;2022-08-21T19:10:37;7.68;;;5.40;;
48100;SDS011;33878;47.442;18.916;2022-08-21T19:13:51;7.40;;;4.72;;
48100;SDS011;33878;47.442;18.916;2022-08-21T19:16:50;6.63;;;5.30;;
48100;SDS011;33878;47.442;18.916;2022-08-21T19:19:47;6.85;;;4.47;;
48100;SDS011;33878;47.442;18.916;2022-08-21T19:22:53;6.80;;;5.12;;
48100;SDS011;33878;47.442;18.916;2022-08-21T19:25:51;7.65;;;5.75;;
48100;SDS011;33878;47.442;18.916;2022-08-21T19:29:04;7.60;;;5.28;;
48100;SDS011;33878;47.442;18.916;2022-08-21T19:32:07;7.05;;;5.18;;
48100;SDS011;33878;47.442;18.916;2022-08-21T19:35:10;7.50;;;4.83;;
48100;SDS011;33878;47.442;18.916;2022-08-21T19:38:20;6.97;;;5.00;;
48100;SDS011;33878;47.442;18.916;2022-08-21T19:41:14;7.70;;;4.60;;
48100;SDS011;33878;47.442;18.916;2022-08-21T19:44:13;5.97;;;4.30;;
48100;SDS011;33878;47.442;18.916;2022-08-21T19:50:37;5.07;;;3.97;;
48100;SDS011;33878;47.442;18.916;2022-08-21T19:53:49;4.97;;;3.50;;
48100;SDS011;33878;47.442;18.916;2022-08-21T19:57:02;4.45;;;3.30;;